Time;durP1;ratioP1;P1;durP2;ratioP2;P2;SDS_P1;SDS_P2;PMS_P1;PMS_P2;Temp;Humidity;BMP_temperature;BMP_pressure;BME280_temperature;BME280_humidity;BME280_pressure;Samples;Min_cycle;Max_cycle;Signal;HPM_P1;HPM_P2
2023/08/05 00:00:07;;;;;;;3.20;2.15;;;;;;;21.54;56.28;93014.81;5090593;28;20044;-89
2023/08/05 00:02:32;;;;;;;3.70;2.65;;;;;;;21.52;56.31;93012.59;5107215;28;20085;-90
2023/08/05 00:04:58;;;;;;;4.60;2.55;;;;;;;21.51;56.31;93010.38;5067814;28;20044;-93
2023/08/05 00:07:23;;;;;;;4.38;2.00;;;;;;;21.50;56.30;93006.91;5056481;28;20039;-93
2023/08/05 00:09:49;;;;;;;2.63;2.17;;;;;;;21.52;56.32;93007.09;5073554;28;20042;-92
2023/08/05 00:12:14;;;;;;;4.40;2.40;;;;;;;21.50;56.27;92998.66;5073764;28;20474;-89
2023/08/05 00:14:39;;;;;;;3.50;2.53;;;;;;;21.49;56.18;92988.94;5074010;28;20040;-88
2023/08/05 00:17:06;;;;;;;2.15;1.83;;;;;;;21.51;56.18;92988.38;5070544;28;20075;-89
2023/08/05 00:19:31;;;;;;;3.53;2.28;;;;;;;21.50;56.15;92990.41;5068260;28;20475;-90
2023/08/05 00:21:57;;;;;;;3.03;2.25;;;;;;;21.49;56.37;92977.19;5073531;28;20092;-90
2023/08/05 00:24:22;;;;;;;2.90;2.25;;;;;;;21.49;56.20;92972.44;5059907;28;20052;-90
2023/08/05 00:26:48;;;;;;;2.78;2.17;;;;;;;21.48;55.87;92976.44;5095563;28;20047;-93
2023/08/05 00:29:13;;;;;;;4.10;2.40;;;;;;;21.50;56.25;92981.41;5066688;28;20048;-91
2023/08/05 00:31:39;;;;;;;3.20;2.10;;;;;;;21.50;56.32;92964.91;5062302;28;20051;-89
2023/08/05 00:34:04;;;;;;;2.92;1.92;;;;;;;21.49;56.15;92966.19;5069960;28;20059;-89
2023/08/05 00:36:29;;;;;;;3.25;2.38;;;;;;;21.49;56.33;92974.44;5080715;28;20062;-92
2023/08/05 00:38:55;;;;;;;3.38;2.22;;;;;;;21.50;56.24;92960.16;5074449;28;20044;-90
2023/08/05 00:41:20;;;;;;;2.80;2.30;;;;;;;21.50;56.36;92951.91;5077799;28;20598;-89
2023/08/05 00:43:46;;;;;;;2.83;2.20;;;;;;;21.49;56.26;92958.66;5103197;28;20061;-93
2023/08/05 00:46:11;;;;;;;3.20;2.10;;;;;;;21.49;56.31;92952.44;5084845;28;20039;-90
2023/08/05 00:48:37;;;;;;;4.13;2.60;;;;;;;21.47;56.35;92952.97;5069048;28;20040;-90
2023/08/05 00:51:02;;;;;;;2.40;2.20;;;;;;;21.47;56.21;92939.22;5066726;28;20041;-90
2023/08/05 00:53:29;;;;;;;3.95;2.08;;;;;;;21.47;56.27;92933.72;5052481;28;20035;-91
2023/08/05 00:55:55;;;;;;;3.13;2.20;;;;;;;21.48;56.32;92934.47;5047414;28;20036;-89
2023/08/05 00:58:21;;;;;;;3.15;2.45;;;;;;;21.46;56.55;92931.50;5068441;28;20070;-91
2023/08/05 01:00:46;;;;;;;2.63;2.10;;;;;;;21.46;56.42;92923.25;5036123;28;20037;-89
2023/08/05 01:03:11;;;;;;;2.85;2.28;;;;;;;21.45;56.30;92928.03;5077518;28;20040;-92
2023/08/05 01:05:37;;;;;;;4.40;2.53;;;;;;;21.49;56.39;92920.16;5046751;28;20060;-90
2023/08/05 01:08:03;;;;;;;3.00;2.10;;;;;;;21.44;56.19;92920.31;5067851;28;20048;-90
2023/08/05 01:10:28;;;;;;;3.25;2.10;;;;;;;21.45;56.20;92913.53;5051719;28;20036;-93
2023/08/05 01:12:54;;;;;;;3.20;2.30;;;;;;;21.46;56.32;92896.50;5073815;28;20089;-90
2023/08/05 01:15:19;;;;;;;3.88;2.70;;;;;;;21.47;56.04;92891.75;5072485;28;20044;-89
2023/08/05 01:17:44;;;;;;;3.45;2.47;;;;;;;21.45;56.59;92897.03;5042330;28;20055;-93
2023/08/05 01:20:11;;;;;;;5.90;2.25;;;;;;;21.45;56.09;92891.53;5055187;28;20036;-90
2023/08/05 01:22:41;;;;;;;3.97;2.15;;;;;;;21.45;56.07;92883.28;5048989;28;20037;-90
2023/08/05 01:25:24;;;;;;;3.83;2.45;;;;;;;21.45;56.16;92888.78;5056910;28;20336;-91
2023/08/05 01:27:49;;;;;;;2.80;2.15;;;;;;;21.46;56.14;92887.53;5057637;28;20116;-89
2023/08/05 01:30:15;;;;;;;2.70;2.08;;;;;;;21.45;56.37;92892.28;5052447;28;20036;-90
2023/08/05 01:32:40;;;;;;;3.22;2.38;;;;;;;21.44;56.22;92892.81;5062422;28;20052;-92
2023/08/05 01:35:06;;;;;;;3.03;2.22;;;;;;;21.43;56.31;92889.38;5052502;28;20106;-91
2023/08/05 01:37:32;;;;;;;3.35;2.65;;;;;;;21.42;56.43;92896.13;5055573;28;20044;-92
2023/08/05 01:39:57;;;;;;;2.22;1.95;;;;;;;21.44;56.24;92901.06;5057008;28;20121;-90
2023/08/05 01:42:22;;;;;;;3.90;1.98;;;;;;;21.44;56.24;92899.06;5052471;28;20523;-90
2023/08/05 01:44:48;;;;;;;3.35;2.45;;;;;;;21.45;56.30;92894.28;5064820;28;20370;-89
2023/08/05 01:47:13;;;;;;;3.40;1.85;;;;;;;21.45;56.28;92892.28;5054249;28;20051;-92
2023/08/05 01:49:39;;;;;;;4.60;2.60;;;;;;;21.45;56.10;92889.53;5065940;28;20036;-93
2023/08/05 01:52:04;;;;;;;3.80;2.22;;;;;;;21.44;56.16;92906.56;5081901;28;20044;-93
2023/08/05 01:54:30;;;;;;;2.22;1.90;;;;;;;21.44;56.24;92896.31;5084592;28;20060;-92
2023/08/05 01:56:55;;;;;;;4.80;2.20;;;;;;;21.45;56.11;92894.28;5078376;28;20051;-91
2023/08/05 01:59:20;;;;;;;3.95;2.20;;;;;;;21.44;56.51;92890.06;5071448;28;20059;-88
2023/08/05 02:01:46;;;;;;;2.78;2.03;;;;;;;21.46;56.27;92887.53;5061838;28;20043;-90
2023/08/05 02:04:12;;;;;;;3.13;1.80;;;;;;;21.45;56.11;92884.03;5086936;27;20043;-91
2023/08/05 02:06:37;;;;;;;3.83;2.17;;;;;;;21.46;56.12;92879.25;5060198;28;20083;-91
2023/08/05 02:09:03;;;;;;;3.22;2.35;;;;;;;21.43;56.29;92866.63;5063544;28;20047;-90
2023/08/05 02:11:28;;;;;;;2.95;2.28;;;;;;;21.44;56.33;92870.81;5069503;28;20035;-90
2023/08/05 02:13:54;;;;;;;3.63;2.35;;;;;;;21.43;56.23;92866.63;5068031;28;20123;-90
2023/08/05 02:16:19;;;;;;;4.25;2.00;;;;;;;21.44;56.22;92860.56;5085253;27;20076;-90
2023/08/05 02:18:45;;;;;;;3.17;2.00;;;;;;;21.44;56.23;92866.06;5087597;28;20040;-92
2023/08/05 02:21:11;;;;;;;2.72;1.98;;;;;;;21.43;56.23;92864.63;5098618;28;20035;-89
2023/08/05 02:23:37;;;;;;;2.38;1.80;;;;;;;21.44;56.35;92873.56;5075771;28;20048;-92
2023/08/05 02:26:03;;;;;;;5.07;1.80;;;;;;;21.44;56.27;92877.06;5075328;28;20440;-88
2023/08/05 02:28:28;;;;;;;3.05;2.25;;;;;;;21.43;56.10;92869.38;5075959;28;20036;-89
2023/08/05 02:30:54;;;;;;;2.05;1.80;;;;;;;21.43;56.09;92872.88;5068588;28;20036;-92
2023/08/05 02:33:19;;;;;;;3.67;2.10;;;;;;;21.44;56.03;92882.56;5074751;28;20047;-92
2023/08/05 02:35:46;;;;;;;2.20;1.83;;;;;;;21.42;56.30;92878.91;5057658;28;20055;-93
2023/08/05 02:38:11;;;;;;;3.25;2.33;;;;;;;21.43;56.07;92885.88;5092234;27;20050;-92
2023/08/05 02:40:37;;;;;;;2.28;1.90;;;;;;;21.44;56.12;92879.81;5091283;28;20031;-90
2023/08/05 02:43:03;;;;;;;3.70;2.00;;;;;;;21.45;56.07;92886.03;5055615;28;20036;-93
2023/08/05 02:45:28;;;;;;;1.95;1.77;;;;;;;21.45;56.21;92880.53;5062565;28;20050;-90
2023/08/05 02:47:53;;;;;;;2.67;1.98;;;;;;;21.43;56.19;92891.38;5068185;28;20039;-90
2023/08/05 02:50:19;;;;;;;2.53;1.70;;;;;;;21.43;56.23;92894.88;5082568;28;20580;-92
2023/08/05 02:52:44;;;;;;;2.58;1.88;;;;;;;21.42;56.29;92896.13;5092086;28;20051;-91
2023/08/05 02:55:10;;;;;;;2.92;1.92;;;;;;;21.42;56.09;92890.63;5058078;28;20036;-91
2023/08/05 02:57:35;;;;;;;2.33;1.92;;;;;;;21.43;56.01;92897.63;5092225;28;20043;-91
2023/08/05 03:00:03;;;;;;;2.50;1.67;;;;;;;21.45;56.07;92894.28;5062725;28;20043;-91
2023/08/05 03:02:28;;;;;;;2.97;2.00;;;;;;;21.42;56.01;92895.41;5080867;28;20051;-92
2023/08/05 03:04:54;;;;;;;3.28;2.00;;;;;;;21.43;56.01;92899.63;5066491;28;20112;-93
2023/08/05 03:07:19;;;;;;;2.50;1.60;;;;;;;21.42;56.10;92906.41;5063211;28;20052;-90
2023/08/05 03:09:44;;;;;;;4.00;2.30;;;;;;;21.43;56.20;92902.38;5054432;28;20036;-92
2023/08/05 03:12:10;;;;;;;2.63;1.75;;;;;;;21.42;55.96;92901.63;5052905;28;20040;-93
2023/08/05 03:14:35;;;;;;;3.70;2.17;;;;;;;21.41;56.00;92902.19;5067394;28;20044;-92
2023/08/05 03:17:01;;;;;;;2.58;1.98;;;;;;;21.42;55.92;92898.88;5074010;28;20051;-93
2023/08/05 03:19:26;;;;;;;2.67;1.92;;;;;;;21.39;56.21;92897.22;5073518;28;20478;-93
2023/08/05 03:21:52;;;;;;;3.22;1.77;;;;;;;21.41;56.11;92902.19;5058471;28;20477;-91
2023/08/05 03:24:17;;;;;;;2.78;2.00;;;;;;;21.42;56.11;92896.13;5060677;27;20039;-93
2023/08/05 03:26:43;;;;;;;2.10;1.85;;;;;;;21.39;55.96;92899.97;5085494;28;20040;-93
2023/08/05 03:29:08;;;;;;;2.70;1.83;;;;;;;21.39;56.08;92894.47;5074692;28;20153;-90
2023/08/05 03:31:34;;;;;;;2.45;1.55;;;;;;;21.40;55.95;92893.19;5056616;28;20044;-91
2023/08/05 03:33:59;;;;;;;2.40;1.90;;;;;;;21.41;56.21;92885.69;5074862;28;20066;-93
2023/08/05 03:36:24;;;;;;;2.10;1.58;;;;;;;21.41;56.13;92891.19;5068812;28;20490;-91
2023/08/05 03:38:51;;;;;;;3.55;1.88;;;;;;;21.40;56.14;92892.47;5074097;28;20066;-93
2023/08/05 03:41:17;;;;;;;2.20;1.52;;;;;;;21.39;56.13;92888.22;5087121;28;20043;-93
2023/08/05 03:43:42;;;;;;;3.03;1.77;;;;;;;21.38;56.25;92884.00;5079252;28;20044;-91
2023/08/05 03:46:07;;;;;;;2.53;1.60;;;;;;;21.37;56.15;92877.78;5070745;28;20052;-92
2023/08/05 03:48:33;;;;;;;2.05;1.60;;;;;;;21.38;56.08;92878.50;5072412;28;20571;-93
2023/08/05 03:50:58;;;;;;;3.17;1.73;;;;;;;21.39;56.15;92880.72;5087141;28;20358;-92
2023/08/05 03:53:24;;;;;;;2.70;1.73;;;;;;;21.38;56.15;92876.50;5066888;28;20048;-89
2023/08/05 03:55:49;;;;;;;2.05;1.48;;;;;;;21.40;55.95;92867.72;5060681;28;20043;-93
2023/08/05 03:58:17;;;;;;;2.28;1.80;;;;;;;21.39;56.07;92869.00;5094569;28;20047;-93
2023/08/05 04:00:43;;;;;;;2.35;1.60;;;;;;;21.36;56.05;92870.81;5078661;28;20084;-92
2023/08/05 04:03:10;;;;;;;2.00;1.80;;;;;;;21.37;56.02;92866.03;5061740;28;20043;-93
2023/08/05 04:05:35;;;;;;;1.92;1.65;;;;;;;21.35;56.10;92858.34;5076831;28;20119;-92
2023/08/05 04:08:01;;;;;;;2.65;2.03;;;;;;;21.36;56.14;92857.06;5064951;28;20052;-89
2023/08/05 04:10:26;;;;;;;2.08;1.42;;;;;;;21.38;56.08;92851.03;5070341;28;20032;-91
2023/08/05 04:12:52;;;;;;;2.70;2.00;;;;;;;21.36;56.04;92853.56;5075151;28;20549;-90
2023/08/05 04:15:20;;;;;;;2.38;1.92;;;;;;;21.35;56.16;92852.09;5058472;28;20109;-93
2023/08/05 04:17:47;;;;;;;3.00;2.15;;;;;;;21.37;55.78;92863.28;5075192;28;20047;-93
2023/08/05 04:20:13;;;;;;;2.33;1.33;;;;;;;21.38;56.22;92846.25;5056623;28;20036;-89
2023/08/05 04:22:39;;;;;;;2.40;1.75;;;;;;;21.35;56.25;92841.84;5074098;28;20032;-91
2023/08/05 04:25:05;;;;;;;2.70;1.90;;;;;;;21.37;56.09;92853.03;5073949;28;20047;-91
2023/08/05 04:27:31;;;;;;;1.75;1.65;;;;;;;21.37;56.20;92860.53;5060101;28;20047;-91
2023/08/05 04:29:58;;;;;;;2.40;1.90;;;;;;;21.38;55.89;92862.03;5091708;28;20074;-89
2023/08/05 04:32:23;;;;;;;3.05;1.52;;;;;;;21.35;55.98;92858.34;5086912;28;20048;-91
2023/08/05 04:34:48;;;;;;;2.50;1.75;;;;;;;21.35;55.90;92861.09;5057180;28;20055;-93
2023/08/05 04:37:21;;;;;;;2.65;1.85;;;;;;;21.34;56.11;92856.13;5058366;28;20042;-91
2023/08/05 04:39:47;;;;;;;2.15;1.80;;;;;;;21.35;55.95;92857.59;5077046;28;20615;-92
2023/08/05 04:42:12;;;;;;;2.67;1.60;;;;;;;21.35;55.99;92861.09;5094079;28;20035;-90
2023/08/05 04:44:40;;;;;;;2.55;1.80;;;;;;;21.36;55.80;92864.56;5064487;28;20048;-92
2023/08/05 04:47:09;;;;;;;2.33;1.40;;;;;;;21.35;55.97;92858.34;5073697;28;20040;-89
2023/08/05 04:49:35;;;;;;;1.83;1.50;;;;;;;21.33;55.94;92855.41;5079717;27;20066;-91
2023/08/05 04:52:05;;;;;;;1.80;1.50;;;;;;;21.35;56.09;92865.84;5083208;27;20510;-89
2023/08/05 04:54:31;;;;;;;2.95;1.55;;;;;;;21.36;56.00;92865.31;5097346;27;20362;-93
2023/08/05 04:56:56;;;;;;;1.90;1.60;;;;;;;21.35;56.03;92861.09;5057926;28;20078;-92
2023/08/05 04:59:23;;;;;;;1.70;1.48;;;;;;;21.35;55.97;92857.59;5052239;28;20045;-88
2023/08/05 05:01:48;;;;;;;2.53;1.90;;;;;;;21.34;55.86;92867.88;5058686;28;20142;-93
2023/08/05 05:04:14;;;;;;;2.03;1.23;;;;;;;21.35;56.04;92874.84;5109027;28;20414;-93
2023/08/05 05:06:40;;;;;;;2.00;1.52;;;;;;;21.34;55.96;92864.38;5074864;28;20059;-91
2023/08/05 05:09:06;;;;;;;2.25;1.80;;;;;;;21.34;55.83;92880.88;5050595;28;20134;-91
2023/08/05 05:11:31;;;;;;;3.20;1.75;;;;;;;21.34;55.87;92881.63;5067697;28;20040;-89
2023/08/05 05:13:57;;;;;;;2.00;1.60;;;;;;;21.36;56.08;92878.31;5087010;28;20036;-94
2023/08/05 05:16:24;;;;;;;2.95;1.63;;;;;;;21.35;55.87;92868.59;5091141;28;20052;-88
2023/08/05 05:18:49;;;;;;;1.73;1.45;;;;;;;21.36;55.59;92872.81;5073948;28;20047;-92
2023/08/05 05:21:15;;;;;;;2.47;1.63;;;;;;;21.37;55.77;92882.53;5063750;28;20043;-93
2023/08/05 05:23:40;;;;;;;1.75;1.50;;;;;;;21.37;56.17;92877.78;5050108;28;20408;-90
2023/08/05 05:26:06;;;;;;;2.53;1.48;;;;;;;21.34;55.94;92880.88;5045025;28;20040;-92
2023/08/05 05:28:31;;;;;;;2.25;1.70;;;;;;;21.36;55.70;92875.56;5061434;28;20036;-92
2023/08/05 05:30:58;;;;;;;1.70;1.40;;;;;;;21.32;55.88;92881.41;5061672;28;20039;-92
2023/08/05 05:33:25;;;;;;;2.67;1.55;;;;;;;21.32;55.98;92880.69;5071578;28;20028;-91
2023/08/05 05:35:50;;;;;;;2.30;1.50;;;;;;;21.33;55.99;92879.41;5058971;28;20040;-90
2023/08/05 05:38:15;;;;;;;1.90;1.33;;;;;;;21.33;55.79;92885.63;5089019;28;20035;-91
2023/08/05 05:40:41;;;;;;;3.63;1.88;;;;;;;21.33;55.85;92887.66;5081646;27;20077;-92
2023/08/05 05:43:07;;;;;;;2.00;1.50;;;;;;;21.33;55.88;92893.16;5094136;27;20091;-90
2023/08/05 05:45:34;;;;;;;1.92;1.38;;;;;;;21.34;55.80;92886.38;5062619;28;20040;-92
2023/08/05 05:48:00;;;;;;;1.52;1.42;;;;;;;21.36;56.10;92892.81;5073802;28;20046;-92
2023/08/05 05:50:25;;;;;;;2.13;1.42;;;;;;;21.33;55.88;92885.63;5046526;28;20048;-90
2023/08/05 05:52:51;;;;;;;2.63;1.83;;;;;;;21.34;55.92;92886.38;5046364;28;20041;-91
2023/08/05 05:55:17;;;;;;;1.50;1.38;;;;;;;21.32;56.01;92875.91;5039048;28;20040;-90
2023/08/05 05:57:43;;;;;;;3.47;1.48;;;;;;;21.34;55.95;92873.38;5037837;28;20051;-89
2023/08/05 06:00:09;;;;;;;1.85;1.52;;;;;;;21.32;55.81;92875.19;5051980;28;20048;-92
2023/08/05 06:02:35;;;;;;;1.95;1.40;;;;;;;21.33;55.93;92876.66;5048921;28;20041;-89
2023/08/05 06:05:00;;;;;;;2.78;1.65;;;;;;;21.32;55.83;92875.19;5018577;28;20095;-92
2023/08/05 06:07:25;;;;;;;2.80;1.58;;;;;;;21.32;56.05;92878.66;5050830;28;20044;-92
2023/08/05 06:09:51;;;;;;;2.38;1.63;;;;;;;21.33;55.95;92876.66;5053862;28;20039;-92
2023/08/05 06:12:18;;;;;;;1.98;1.60;;;;;;;21.34;55.78;92858.88;5054786;28;20028;-90
2023/08/05 06:14:43;;;;;;;1.63;1.38;;;;;;;21.32;55.93;92873.16;5056355;28;20501;-89
2023/08/05 06:17:09;;;;;;;1.65;1.55;;;;;;;21.34;55.85;92873.38;5052418;28;20060;-92
2023/08/05 06:19:35;;;;;;;1.95;1.60;;;;;;;21.33;55.92;92866.38;5035787;28;20039;-92
2023/08/05 06:22:01;;;;;;;1.63;1.25;;;;;;;21.35;55.74;92880.34;5051534;28;20052;-91
2023/08/05 06:24:26;;;;;;;2.08;1.60;;;;;;;21.36;56.05;92870.06;5045646;28;20036;-92
2023/08/05 06:26:52;;;;;;;1.73;1.50;;;;;;;21.34;56.00;92867.88;5032921;28;20307;-91
2023/08/05 06:29:17;;;;;;;1.60;1.30;;;;;;;21.34;55.93;92853.38;5023589;28;20036;-92
2023/08/05 06:31:43;;;;;;;2.85;1.60;;;;;;;21.34;55.94;92856.13;5053598;28;20418;-91
2023/08/05 06:34:11;;;;;;;1.95;1.58;;;;;;;21.31;55.79;92849.69;5071005;28;20036;-92
2023/08/05 06:36:36;;;;;;;2.15;1.95;;;;;;;21.32;55.93;92853.91;5029148;28;20037;-93
2023/08/05 06:39:03;;;;;;;1.73;1.35;;;;;;;21.32;55.97;92856.66;5056980;28;20040;-92
2023/08/05 06:41:29;;;;;;;2.53;1.48;;;;;;;21.32;55.98;92862.16;5065478;28;20051;-92
2023/08/05 06:43:54;;;;;;;2.00;1.40;;;;;;;21.36;55.85;92861.81;5036660;28;20123;-92
2023/08/05 06:46:20;;;;;;;1.63;1.40;;;;;;;21.38;55.70;92853.78;5059643;28;20059;-93
2023/08/05 06:48:46;;;;;;;2.05;1.40;;;;;;;21.35;55.66;92839.09;5019155;28;20033;-92
2023/08/05 06:51:12;;;;;;;2.40;1.80;;;;;;;21.33;55.87;92840.91;5068817;27;20608;-91
2023/08/05 06:53:39;;;;;;;2.33;1.77;;;;;;;21.34;55.49;92847.88;5082711;28;20039;-93
2023/08/05 06:56:05;;;;;;;1.73;1.50;;;;;;;21.32;55.74;92839.44;5087939;28;20032;-91
2023/08/05 06:58:30;;;;;;;2.88;1.42;;;;;;;21.35;55.74;92846.59;5076643;28;20034;-90
2023/08/05 07:00:56;;;;;;;2.05;1.45;;;;;;;21.34;55.86;92834.13;5079422;27;20035;-92
2023/08/05 07:03:23;;;;;;;2.20;1.52;;;;;;;21.33;55.92;92838.16;5075799;28;20044;-90
2023/08/05 07:05:48;;;;;;;1.60;1.42;;;;;;;21.33;55.83;92835.41;5074320;28;20067;-89
2023/08/05 07:08:14;;;;;;;2.40;1.40;;;;;;;21.36;55.65;92835.06;5074500;28;20105;-90
2023/08/05 07:10:39;;;;;;;2.55;1.30;;;;;;;21.37;55.90;92835.81;5079901;27;20043;-92
2023/08/05 07:13:06;;;;;;;2.63;1.92;;;;;;;21.35;55.44;92847.34;5079389;27;20035;-92
2023/08/05 07:15:36;;;;;;;1.60;1.30;;;;;;;21.34;55.77;92845.13;5078277;28;20151;-89
2023/08/05 07:18:02;;;;;;;1.98;1.67;;;;;;;21.34;55.95;92834.88;5072024;28;20441;-92
2023/08/05 07:20:27;;;;;;;4.38;1.60;;;;;;;21.35;55.72;92841.84;5084069;28;20390;-90
2023/08/05 07:22:52;;;;;;;1.83;1.20;;;;;;;21.34;55.80;92842.38;5093998;27;20039;-91
2023/08/05 07:25:18;;;;;;;3.67;1.45;;;;;;;21.31;55.88;92841.44;5084521;28;20039;-93
2023/08/05 07:27:43;;;;;;;1.42;1.33;;;;;;;21.31;55.69;92838.69;5090697;28;20040;-92
2023/08/05 07:30:12;;;;;;;1.77;1.45;;;;;;;21.32;55.78;92836.69;5074320;28;20036;-91
2023/08/05 07:32:38;;;;;;;2.25;1.25;;;;;;;21.32;55.92;92850.44;5071667;28;20089;-90
2023/08/05 07:35:07;;;;;;;1.98;1.60;;;;;;;21.33;55.71;92851.91;5095642;28;20058;-89
2023/08/05 07:37:34;;;;;;;2.97;1.60;;;;;;;21.35;55.52;92852.84;5111581;28;20118;-93
2023/08/05 07:39:59;;;;;;;2.60;1.65;;;;;;;21.35;55.77;92849.34;5058573;28;20035;-91
2023/08/05 07:42:25;;;;;;;2.33;1.20;;;;;;;21.33;55.81;92841.66;5073891;28;20046;-90
2023/08/05 07:44:52;;;;;;;1.23;1.10;;;;;;;21.33;55.87;92849.16;5063964;28;20059;-90
2023/08/05 07:47:18;;;;;;;1.40;1.30;;;;;;;21.33;55.82;92841.66;5060115;28;20542;-92
2023/08/05 07:49:44;;;;;;;1.13;1.02;;;;;;;21.34;55.75;92847.88;5064714;28;20131;-93
2023/08/05 07:52:09;;;;;;;1.52;1.20;;;;;;;21.34;55.79;92850.63;5047336;28;20060;-91
2023/08/05 07:54:35;;;;;;;1.40;1.08;;;;;;;21.34;55.71;92864.38;5050373;28;20475;-91
2023/08/05 07:57:00;;;;;;;1.63;1.33;;;;;;;21.33;55.65;92857.41;5070620;28;20125;-91
2023/08/05 07:59:27;;;;;;;1.92;1.42;;;;;;;21.34;55.79;92854.13;5034365;28;20029;-91
2023/08/05 08:01:54;;;;;;;1.67;1.52;;;;;;;21.35;55.86;92865.84;5033993;28;20040;-90
2023/08/05 08:04:19;;;;;;;1.23;1.13;;;;;;;21.35;55.81;92871.34;5034106;28;20398;-91
2023/08/05 08:06:47;;;;;;;1.85;1.27;;;;;;;21.36;55.84;92864.56;5033720;28;20040;-91
2023/08/05 08:09:13;;;;;;;1.52;1.27;;;;;;;21.34;55.83;92859.63;5050069;28;20051;-89
2023/08/05 08:11:38;;;;;;;1.48;1.38;;;;;;;21.36;55.95;92872.81;5058425;28;20137;-92
2023/08/05 08:14:04;;;;;;;2.08;1.20;;;;;;;21.38;56.02;92873.00;5040686;28;20049;-91
2023/08/05 08:16:30;;;;;;;3.03;1.60;;;;;;;21.37;55.75;92871.53;5060732;28;20044;-89
2023/08/05 08:18:56;;;;;;;1.77;1.50;;;;;;;21.35;55.81;92874.84;5039380;28;20048;-91
2023/08/05 08:21:21;;;;;;;2.72;2.08;;;;;;;21.37;55.70;92879.78;5054534;28;20077;-89
2023/08/05 08:23:46;;;;;;;20.60;8.52;;;;;;;21.35;55.92;92882.34;5048507;28;20037;-92
2023/08/05 08:26:12;;;;;;;14.38;6.55;;;;;;;21.35;55.84;92885.84;5035712;28;20407;-89
2023/08/05 08:28:37;;;;;;;9.10;6.28;;;;;;;21.35;55.79;92882.34;5036135;28;20125;-94
2023/08/05 08:31:03;;;;;;;11.25;7.03;;;;;;;21.39;55.79;92883.47;5052375;28;20036;-90
2023/08/05 08:33:28;;;;;;;9.25;4.93;;;;;;;21.35;55.92;92882.34;5050557;28;20041;-90
2023/08/05 08:35:55;;;;;;;7.63;5.05;;;;;;;21.38;55.84;92889.50;5049739;28;20033;-93
2023/08/05 08:38:20;;;;;;;5.30;3.90;;;;;;;21.37;55.89;92888.03;5050858;28;20032;-90
2023/08/05 08:40:50;;;;;;;7.38;5.38;;;;;;;21.36;56.02;92886.56;5034217;28;20044;-90
2023/08/05 08:43:17;;;;;;;8.98;3.75;;;;;;;21.36;56.01;92886.56;5046085;28;20056;-92
2023/08/05 08:45:43;;;;;;;8.00;4.45;;;;;;;21.34;55.84;92884.38;5056754;28;20040;-92
2023/08/05 08:48:09;;;;;;;4.57;3.97;;;;;;;21.35;55.80;92890.59;5040830;28;20037;-91
2023/08/05 08:50:35;;;;;;;9.85;5.88;;;;;;;21.34;55.94;92891.88;5022966;28;20045;-92
2023/08/05 08:53:01;;;;;;;16.15;8.10;;;;;;;21.36;55.88;92881.81;5039849;28;20056;-93
2023/08/05 08:55:28;;;;;;;24.75;13.95;;;;;;;21.36;56.01;92875.56;5024996;28;20047;-92
2023/08/05 08:57:53;;;;;;;10.73;6.28;;;;;;;21.35;55.97;92877.59;5061446;28;20067;-92
2023/08/05 09:00:18;;;;;;;33.55;16.90;;;;;;;21.34;56.18;92889.13;5043920;28;20032;-92
2023/08/05 09:02:44;;;;;;;21.80;10.38;;;;;;;21.35;55.90;92882.34;5057440;28;20044;-91
2023/08/05 09:05:09;;;;;;;18.90;10.07;;;;;;;21.34;55.99;92876.13;5073567;28;20099;-92
2023/08/05 09:07:35;;;;;;;23.17;10.13;;;;;;;21.37;56.08;92882.53;5050442;28;20160;-91
2023/08/05 09:10:04;;;;;;;17.98;9.70;;;;;;;21.37;55.85;92882.53;5038969;28;20048;-91
2023/08/05 09:12:31;;;;;;;28.67;14.13;;;;;;;21.36;55.94;92887.31;5077233;28;20032;-89
2023/08/05 09:14:57;;;;;;;20.30;9.15;;;;;;;21.37;56.00;92877.78;5058656;28;20044;-92
2023/08/05 09:17:22;;;;;;;26.40;11.55;;;;;;;21.37;56.06;92877.78;5034234;28;20516;-90
2023/08/05 09:19:47;;;;;;;15.98;8.43;;;;;;;21.37;55.83;92882.53;5077393;28;20127;-91
2023/08/05 09:22:13;;;;;;;11.82;7.40;;;;;;;21.39;55.89;92880.72;5059134;28;20048;-92
2023/08/05 09:24:38;;;;;;;12.18;6.15;;;;;;;21.39;55.67;92869.00;5058118;28;20040;-91
2023/08/05 09:27:04;;;;;;;11.98;7.25;;;;;;;21.39;55.60;92877.25;5055802;28;20036;-93
2023/08/05 09:29:31;;;;;;;10.52;6.28;;;;;;;21.40;55.87;92889.72;5042764;28;20040;-91
2023/08/05 09:31:57;;;;;;;13.82;8.70;;;;;;;21.40;55.57;92882.19;5052090;28;20024;-89
2023/08/05 09:34:31;;;;;;;13.98;8.30;;;;;;;21.41;55.73;92880.19;5044358;28;20101;-93
2023/08/05 09:36:56;;;;;;;17.05;9.40;;;;;;;21.42;55.54;92881.66;5065895;28;20044;-93
2023/08/05 09:39:23;;;;;;;17.23;9.57;;;;;;;21.41;55.64;92871.94;5051904;28;20641;-93
2023/08/05 09:41:51;;;;;;;19.13;10.25;;;;;;;21.42;55.81;92874.13;5041149;28;20044;-91
2023/08/05 09:44:18;;;;;;;19.45;9.32;;;;;;;21.43;55.98;92872.13;5050751;28;20028;-91
2023/08/05 09:46:45;;;;;;;19.58;9.95;;;;;;;21.43;55.55;92883.13;5044658;28;20098;-90
2023/08/05 09:49:17;;;;;;;19.70;11.10;;;;;;;21.43;55.77;92877.63;5054351;28;20548;-93
2023/08/05 09:51:42;;;;;;;19.23;10.13;;;;;;;21.43;55.69;92872.13;5049614;28;20538;-93
2023/08/05 09:54:12;;;;;;;19.52;11.13;;;;;;;21.42;55.63;92865.16;5036828;28;20052;-93
2023/08/05 09:56:38;;;;;;;31.63;14.30;;;;;;;21.43;55.78;92872.88;5071346;28;20032;-91
2023/08/05 09:59:03;;;;;;;21.98;10.90;;;;;;;21.44;55.84;92871.56;5039890;28;20061;-93
2023/08/05 10:01:28;;;;;;;21.08;13.20;;;;;;;21.43;55.85;92870.13;5054300;28;20069;-91
2023/08/05 10:03:54;;;;;;;29.85;15.95;;;;;;;21.45;55.70;92875.03;5039335;28;20039;-92
2023/08/05 10:06:20;;;;;;;25.45;13.90;;;;;;;21.47;55.84;92875.97;5037967;28;20032;-94
2023/08/05 10:08:48;;;;;;;30.83;15.88;;;;;;;21.45;55.71;92878.53;5041874;28;20062;-92
2023/08/05 10:11:14;;;;;;;29.73;17.17;;;;;;;21.45;55.76;92869.53;5054121;28;20511;-94
2023/08/05 10:13:41;;;;;;;27.20;15.68;;;;;;;21.48;55.97;92862.97;5067555;28;20048;-92
2023/08/05 10:16:07;;;;;;;33.45;18.90;;;;;;;21.45;55.71;92850.28;5033870;28;20488;-91
2023/08/05 10:18:34;;;;;;;26.05;14.93;;;;;;;21.46;55.81;92860.75;5036494;28;20047;-91
2023/08/05 10:21:04;;;;;;;37.15;20.40;;;;;;;21.46;55.66;92860.03;5055506;28;20047;-91
2023/08/05 10:23:32;;;;;;;31.08;18.83;;;;;;;21.47;55.57;92858.75;5068573;28;20616;-93
2023/08/05 10:26:00;;;;;;;33.95;20.80;;;;;;;21.46;55.64;92860.75;5055297;28;20047;-92
2023/08/05 10:28:25;;;;;;;34.97;20.80;;;;;;;21.48;55.77;92869.19;5048524;28;20032;-91
2023/08/05 10:30:51;;;;;;;34.20;20.60;;;;;;;21.45;55.50;92853.78;5088227;28;20849;-91
2023/08/05 10:33:17;;;;;;;31.30;19.67;;;;;;;21.46;55.76;92863.50;5055428;28;20032;-93
2023/08/05 10:35:44;;;;;;;34.85;18.30;;;;;;;21.47;55.53;92858.75;5056629;28;20069;-93
2023/08/05 10:38:16;;;;;;;39.30;21.02;;;;;;;21.47;55.71;92856.72;5044808;28;20041;-93
2023/08/05 10:40:51;;;;;;;33.63;20.98;;;;;;;21.47;55.60;92858.75;5049531;28;20063;-91
2023/08/05 10:43:35;;;;;;;29.05;19.08;;;;;;;21.47;55.75;92853.97;5088850;28;20043;-94
2023/08/05 10:46:07;;;;;;;41.25;22.15;;;;;;;21.47;55.65;92850.50;5036962;28;20388;-91
2023/08/05 10:48:42;;;;;;;34.10;19.58;;;;;;;21.47;55.80;92862.22;5076495;28;20075;-93
2023/08/05 10:51:11;;;;;;;33.38;20.15;;;;;;;21.48;55.80;92868.47;5059670;28;20443;-92
2023/08/05 10:53:36;;;;;;;34.05;22.00;;;;;;;21.49;55.56;92853.44;5050228;28;20499;-93
2023/08/05 10:56:02;;;;;;;37.13;22.17;;;;;;;21.49;55.77;92858.94;5048638;28;20049;-93
2023/08/05 10:58:28;;;;;;;39.95;22.50;;;;;;;21.48;55.68;92860.94;5031194;28;20123;-94
2023/08/05 11:01:02;;;;;;;34.58;22.85;;;;;;;21.47;55.62;92861.50;5036823;28;20044;-92
2023/08/05 11:03:43;;;;;;;35.20;21.92;;;;;;;21.47;55.58;92873.22;5061104;28;20036;-93
2023/08/05 11:06:10;;;;;;;41.65;25.15;;;;;;;21.49;55.50;92875.44;5068381;28;20066;-91
2023/08/05 11:08:36;;;;;;;31.05;20.25;;;;;;;21.48;55.70;92871.94;5069681;28;20083;-93
2023/08/05 11:11:06;;;;;;;35.15;23.77;;;;;;;21.50;55.82;92887.91;5065319;28;20066;-92
2023/08/05 11:13:39;;;;;;;34.83;21.30;;;;;;;21.49;55.95;92873.41;5078209;28;20047;-94
2023/08/05 11:16:15;;;;;;;36.35;23.02;;;;;;;21.48;55.75;92871.94;5064636;28;20047;-91
2023/08/05 11:18:42;;;;;;;37.60;24.42;;;;;;;21.49;55.84;92878.19;5072451;28;20044;-92
2023/08/05 11:21:13;;;;;;;36.40;22.77;;;;;;;21.48;55.90;92860.22;5071467;28;20154;-92
2023/08/05 11:23:39;;;;;;;45.67;23.73;;;;;;;21.51;56.11;92856.38;5057644;28;20093;-92